createdAt,value
2018-04-23T00:02:04.141Z,13.20
2018-04-23T00:04:31.961Z,13.10
2018-04-23T00:07:00.052Z,13.00
2018-04-23T00:09:26.967Z,13.00
2018-04-23T00:11:54.989Z,12.90
2018-04-23T00:14:21.948Z,12.90
2018-04-23T00:16:49.232Z,12.90
2018-04-23T00:19:17.005Z,12.70
2018-04-23T00:21:44.647Z,12.70
2018-04-23T00:24:15.333Z,12.70
2018-04-23T00:26:42.222Z,12.70
2018-04-23T00:29:09.224Z,12.60
2018-04-23T00:31:36.105Z,12.60
2018-04-23T00:34:02.993Z,12.70
2018-04-23T00:36:31.504Z,12.60
2018-04-23T00:38:58.372Z,12.60
2018-04-23T00:41:26.037Z,12.60
2018-04-23T00:43:54.109Z,12.50
2018-04-23T00:46:20.974Z,12.50
2018-04-23T00:48:48.617Z,12.40
2018-04-23T00:51:15.584Z,12.40
2018-04-23T00:53:42.945Z,12.40
2018-04-23T00:56:10.572Z,12.40
2018-04-23T00:58:37.837Z,12.40
2018-04-23T01:01:05.965Z,12.40
2018-04-23T01:03:32.825Z,12.40
2018-04-23T01:06:01.221Z,12.40
2018-04-23T01:08:28.101Z,12.30
2018-04-23T01:10:55.013Z,12.30
2018-04-23T01:13:22.007Z,12.30
2018-04-23T01:15:48.935Z,12.30
2018-04-23T01:18:15.840Z,12.30
2018-04-23T01:20:42.932Z,12.30
2018-04-23T01:23:09.840Z,12.30
2018-04-23T01:25:40.524Z,12.30
2018-04-23T01:28:07.504Z,12.30
2018-04-23T01:30:35.699Z,12.30
2018-04-23T01:33:03.318Z,12.30
2018-04-23T01:35:31.330Z,12.20
2018-04-23T01:37:59.752Z,12.20
2018-04-23T01:40:26.641Z,12.20
2018-04-23T01:42:54.997Z,12.20
2018-04-23T01:45:21.900Z,12.20
2018-04-23T01:47:48.780Z,12.10
2018-04-23T01:50:16.063Z,12.10
2018-04-23T01:52:42.952Z,12.10
2018-04-23T01:55:09.864Z,12.20
2018-04-23T01:57:38.428Z,12.30
2018-04-23T02:00:05.326Z,12.20
2018-04-23T02:02:32.596Z,12.20
2018-04-23T02:05:00.176Z,12.20
2018-04-23T02:07:27.124Z,12.10
2018-04-23T02:09:54.010Z,12.00
2018-04-23T02:12:20.908Z,12.00
2018-04-23T02:14:47.836Z,12.00
2018-04-23T02:17:15.904Z,11.90
2018-04-23T02:19:43.405Z,11.90
2018-04-23T02:22:11.070Z,11.90
2018-04-23T02:24:38.704Z,11.90
2018-04-23T02:27:05.595Z,11.90
2018-04-23T02:29:32.868Z,11.90
2018-04-23T02:31:59.762Z,11.90
2018-04-23T02:34:27.208Z,12.10
2018-04-23T02:36:54.077Z,11.90
2018-04-23T02:39:21.693Z,12.00
2018-04-23T02:41:49.429Z,12.00
2018-04-23T02:44:17.217Z,12.00
2018-04-23T02:46:44.110Z,11.90
2018-04-23T02:49:11.801Z,11.70
2018-04-23T02:51:38.713Z,11.70
2018-04-23T02:54:06.827Z,11.70
2018-04-23T02:56:34.573Z,11.70
2018-04-23T02:59:01.466Z,11.60
2018-04-23T03:01:28.356Z,11.60
2018-04-23T03:03:55.232Z,11.60
2018-04-23T03:06:23.513Z,11.60
2018-04-23T03:08:52.049Z,11.60
2018-04-23T03:11:19.386Z,11.60
2018-04-23T03:13:47.000Z,11.60
2018-04-23T03:16:13.891Z,11.60
2018-04-23T03:18:43.271Z,11.60
2018-04-23T03:21:10.335Z,11.60
2018-04-23T03:23:38.871Z,11.50
2018-04-23T03:26:06.581Z,11.50
2018-04-23T03:28:34.204Z,11.50
2018-04-23T03:31:01.477Z,11.40
2018-04-23T03:33:29.164Z,11.50
2018-04-23T03:35:56.774Z,11.50
2018-04-23T03:38:23.641Z,11.50
2018-04-23T03:40:50.578Z,11.40
2018-04-23T03:43:17.840Z,11.40
2018-04-23T03:45:45.672Z,11.30
2018-04-23T03:48:13.067Z,11.30
2018-04-23T03:50:39.927Z,11.20
2018-04-23T03:53:06.820Z,11.10
2018-04-23T03:55:36.969Z,11.20
2018-04-23T03:58:04.488Z,11.20
2018-04-23T04:00:31.369Z,11.20
2018-04-23T04:02:58.347Z,11.30
2018-04-23T04:05:26.017Z,11.30
2018-04-23T04:07:53.290Z,11.20
2018-04-23T04:10:21.707Z,11.20
2018-04-23T04:13:00.667Z,11.20
2018-04-23T04:15:39.972Z,11.20
2018-04-23T04:21:09.903Z,11.10
2018-04-23T04:23:42.584Z,11.10
2018-04-23T04:26:11.275Z,11.10
2018-04-23T04:28:38.540Z,11.20
2018-04-23T04:31:05.469Z,11.20
2018-04-23T04:33:33.340Z,11.20
2018-04-23T04:36:00.196Z,11.10
2018-04-23T04:38:27.104Z,11.20
2018-04-23T04:40:54.448Z,11.10
2018-04-23T04:43:21.331Z,11.10
2018-04-23T04:45:48.299Z,11.00
2018-04-23T04:48:15.934Z,10.90
2018-04-23T04:50:42.795Z,10.90
2018-04-23T04:53:10.413Z,10.90
2018-04-23T04:55:37.788Z,10.90
2018-04-23T04:58:04.723Z,10.90
2018-04-23T05:00:31.592Z,10.90
2018-04-23T05:02:59.203Z,10.80
2018-04-23T05:05:26.550Z,10.80
2018-04-23T05:07:53.451Z,10.90
2018-04-23T05:10:22.420Z,10.90
2018-04-23T05:12:49.272Z,10.90
2018-04-23T05:15:16.193Z,11.00
2018-04-23T05:17:43.088Z,11.00
2018-04-23T05:20:09.952Z,11.00
2018-04-23T05:22:37.128Z,10.90
2018-04-23T05:25:04.395Z,10.90
2018-04-23T05:27:31.283Z,10.90
2018-04-23T05:29:59.257Z,10.90
2018-04-23T05:32:26.200Z,10.90
2018-04-23T05:34:53.836Z,11.00
2018-04-23T05:37:21.423Z,11.20
2018-04-23T05:39:48.357Z,11.20
2018-04-23T05:42:15.236Z,11.20
2018-04-23T05:44:42.116Z,11.40
2018-04-23T05:47:09.435Z,11.40
2018-04-23T05:49:36.296Z,11.50
2018-04-23T05:52:03.145Z,11.50
2018-04-23T05:54:30.040Z,11.60
2018-04-23T05:56:56.912Z,11.70
2018-04-23T05:59:24.180Z,11.80
2018-04-23T06:01:51.441Z,11.90
2018-04-23T06:04:18.328Z,12.00
2018-04-23T06:06:45.635Z,12.20
2018-04-23T06:09:13.093Z,12.30
2018-04-23T06:11:40.736Z,12.50
2018-04-23T06:14:07.608Z,12.60
2018-04-23T06:16:34.555Z,12.70
2018-04-23T06:19:03.194Z,12.90
2018-04-23T06:21:30.057Z,13.00
2018-04-23T06:23:56.951Z,13.20
2018-04-23T06:26:23.808Z,13.50
2018-04-23T06:28:50.700Z,13.80
2018-04-23T06:31:17.799Z,14.20
2018-04-23T06:33:44.779Z,14.60
2018-04-23T06:36:11.936Z,14.90
2018-04-23T06:38:38.803Z,15.30
2018-04-23T06:41:06.408Z,16.10
2018-04-23T06:43:33.288Z,16.10
2018-04-23T06:46:00.156Z,16.50
2018-04-23T06:48:27.057Z,16.80
2018-04-23T06:50:53.928Z,17.20
2018-04-23T06:53:23.718Z,17.60
2018-04-23T06:55:51.047Z,17.90
2018-04-23T06:58:17.940Z,18.30
2018-04-23T07:00:45.702Z,18.60
2018-04-23T07:03:12.597Z,18.90
2018-04-23T07:05:39.484Z,19.10
2018-04-23T07:08:06.841Z,19.40
2018-04-23T07:10:34.458Z,19.90
2018-04-23T07:13:03.171Z,19.90
2018-04-23T07:15:30.079Z,20.10
2018-04-23T07:17:56.964Z,20.20
2018-04-23T07:20:24.357Z,20.30
2018-04-23T07:22:51.297Z,20.40
2018-04-23T07:25:18.606Z,20.60
2018-04-23T07:27:45.476Z,20.80
2018-04-23T07:30:17.236Z,21.00
2018-04-23T07:32:44.887Z,21.50
2018-04-23T07:35:11.781Z,21.50
2018-04-23T07:37:38.772Z,21.70
2018-04-23T07:40:05.640Z,21.80
2018-04-23T07:42:33.276Z,21.70
2018-04-23T07:45:01.463Z,21.80
2018-04-23T07:47:28.377Z,21.70
2018-04-23T07:49:55.904Z,21.70
2018-04-23T07:52:22.836Z,21.60
2018-04-23T07:54:49.768Z,21.60
2018-04-23T07:57:18.789Z,21.60
2018-04-23T07:59:45.689Z,21.60
2018-04-23T08:02:14.771Z,21.60
2018-04-23T08:04:41.839Z,21.60
2018-04-23T08:07:08.729Z,21.70
2018-04-23T08:09:35.768Z,21.70
2018-04-23T08:12:02.832Z,21.60
2018-04-23T08:14:30.683Z,21.70
2018-04-23T08:16:57.587Z,21.60
2018-04-23T08:19:24.460Z,21.60
2018-04-23T08:21:51.777Z,21.60
2018-04-23T08:24:18.661Z,21.60
2018-04-23T08:26:45.696Z,21.60
2018-04-23T08:29:13.325Z,21.70
2018-04-23T08:31:41.633Z,21.80
2018-04-23T08:34:08.526Z,21.80
2018-04-23T08:36:35.588Z,21.80
2018-04-23T08:39:02.862Z,21.80
2018-04-23T08:41:30.560Z,21.90
2018-04-23T08:43:57.473Z,21.70
2018-04-23T08:46:24.417Z,21.70
2018-04-23T08:48:52.072Z,21.60
2018-04-23T08:51:20.974Z,21.60
2018-04-23T08:53:47.841Z,21.60
2018-04-23T08:56:14.733Z,21.60
2018-04-23T08:58:42.660Z,21.50
2018-04-23T09:01:09.580Z,21.50
2018-04-23T09:03:37.983Z,21.30
2018-04-23T09:06:04.909Z,21.30
2018-04-23T09:08:31.791Z,21.30
2018-04-23T09:10:59.932Z,21.20
2018-04-23T09:13:27.548Z,21.10
2018-04-23T09:15:54.598Z,21.10
2018-04-23T09:18:21.576Z,21.10
2018-04-23T09:20:48.472Z,21.10
2018-04-23T09:23:15.436Z,21.10
2018-04-23T09:25:42.324Z,21.10
2018-04-23T09:28:11.696Z,21.20
2018-04-23T09:30:38.574Z,21.30
2018-04-23T09:33:05.629Z,21.50
2018-04-23T09:35:32.557Z,21.70
2018-04-23T09:37:59.438Z,22.00
2018-04-23T09:40:26.808Z,22.20
2018-04-23T09:42:53.717Z,22.30
2018-04-23T09:45:20.693Z,22.30
2018-04-23T09:47:48.648Z,22.40
2018-04-23T09:50:15.552Z,22.50
2018-04-23T09:52:42.564Z,22.60
2018-04-23T09:55:09.527Z,22.70
2018-04-23T09:57:37.228Z,22.90
2018-04-23T10:00:04.825Z,22.90
2018-04-23T10:02:31.962Z,23.20
2018-04-23T10:05:00.284Z,23.60
2018-04-23T10:07:28.199Z,24.10
2018-04-23T10:09:55.085Z,24.10
2018-04-23T10:12:23.239Z,24.20
2018-04-23T10:14:50.210Z,24.30
2018-04-23T10:17:17.117Z,24.40
2018-04-23T10:19:44.013Z,24.70
2018-04-23T10:22:11.045Z,24.80
2018-04-23T10:24:37.950Z,25.00
2018-04-23T10:27:05.317Z,25.10
2018-04-23T10:29:32.672Z,25.20
2018-04-23T10:31:59.552Z,25.10
2018-04-23T10:34:28.319Z,25.10
2018-04-23T10:36:56.029Z,25.30
2018-04-23T10:39:22.908Z,25.40
2018-04-23T10:41:50.564Z,25.40
2018-04-23T10:44:17.441Z,25.50
2018-04-23T10:46:44.317Z,25.50
2018-04-23T10:49:12.133Z,25.50
2018-04-23T10:51:39.810Z,25.50
2018-04-23T10:54:07.560Z,25.60
2018-04-23T10:56:35.213Z,25.70
2018-04-23T10:59:02.090Z,25.80
2018-04-23T11:01:28.997Z,25.90
2018-04-23T11:03:55.894Z,25.90
2018-04-23T11:06:23.628Z,25.80
2018-04-23T11:08:51.264Z,25.80
2018-04-23T11:11:18.946Z,25.80
2018-04-23T11:13:49.120Z,25.80
2018-04-23T11:16:16.004Z,25.90
2018-04-23T11:18:43.636Z,26.00
2018-04-23T11:21:10.537Z,26.00
2018-04-23T11:23:37.409Z,25.90
2018-04-23T11:26:04.321Z,26.00
2018-04-23T11:28:31.198Z,26.30
2018-04-23T11:30:58.281Z,26.40
2018-04-23T11:33:25.339Z,26.60
2018-04-23T11:35:53.577Z,26.90
2018-04-23T11:38:20.884Z,26.90
2018-04-23T11:40:48.408Z,27.10
2018-04-23T11:43:15.336Z,27.00
2018-04-23T11:45:42.204Z,26.90
2018-04-23T11:48:09.609Z,26.90
2018-04-23T11:50:36.888Z,26.90
2018-04-23T11:53:03.813Z,26.90
2018-04-23T11:55:32.514Z,26.90
2018-04-23T11:57:59.376Z,26.90
2018-04-23T12:00:26.241Z,27.00
2018-04-23T12:02:53.137Z,27.00
2018-04-23T12:05:20.044Z,27.10
2018-04-23T12:07:48.256Z,27.10
2018-04-23T12:10:15.128Z,27.10
2018-04-23T12:12:42.040Z,27.10
2018-04-23T12:15:08.940Z,27.10
2018-04-23T12:17:35.833Z,27.10
2018-04-23T12:20:03.126Z,27.10
2018-04-23T12:22:30.039Z,27.00
2018-04-23T12:24:56.936Z,26.90
2018-04-23T12:27:25.049Z,26.80
2018-04-23T12:29:51.915Z,26.80
2018-04-23T12:32:18.941Z,26.60
2018-04-23T12:34:45.880Z,26.50
2018-04-23T12:37:15.195Z,26.30
2018-04-23T12:39:42.735Z,26.20
2018-04-23T12:42:09.599Z,26.00
2018-04-23T12:44:37.151Z,25.90
2018-04-23T12:47:04.835Z,25.80
2018-04-23T12:49:33.672Z,25.70
2018-04-23T12:52:00.582Z,25.70
2018-04-23T12:54:28.202Z,25.60
2018-04-23T12:56:55.135Z,25.60
2018-04-23T12:59:22.991Z,25.70
2018-04-23T13:01:49.869Z,25.60
2018-04-23T13:04:16.732Z,25.70
2018-04-23T13:06:44.854Z,25.70
2018-04-23T13:09:14.101Z,25.70
2018-04-23T13:11:42.180Z,25.70
2018-04-23T13:14:09.048Z,25.70
2018-04-23T13:16:36.469Z,25.70
2018-04-23T13:19:03.326Z,25.70
2018-04-23T13:21:31.245Z,25.70
2018-04-23T13:23:58.146Z,25.70
2018-04-23T13:26:25.041Z,25.70
2018-04-23T13:28:52.305Z,25.70
2018-04-23T13:31:19.200Z,25.70
2018-04-23T13:33:46.968Z,25.80
2018-04-23T13:36:15.360Z,25.80
2018-04-23T13:38:42.288Z,25.80
2018-04-23T13:41:11.145Z,25.70
2018-04-23T13:43:38.084Z,25.60
2018-04-23T13:46:05.586Z,25.50
2018-04-23T13:48:33.371Z,25.50
2018-04-23T13:51:00.292Z,25.40
2018-04-23T13:53:27.230Z,25.30
2018-04-23T13:55:54.540Z,25.30
2018-04-23T13:58:22.672Z,25.20
2018-04-23T14:00:50.582Z,25.20
2018-04-23T14:03:17.453Z,25.30
2018-04-23T14:05:44.337Z,25.30
2018-04-23T14:08:11.248Z,25.30
2018-04-23T14:10:38.254Z,25.30
2018-04-23T14:13:05.176Z,25.20
2018-04-23T14:15:32.976Z,25.10
2018-04-23T14:17:59.860Z,25.10
2018-04-23T14:20:26.746Z,25.00
2018-04-23T14:22:54.157Z,25.00
2018-04-23T14:25:21.541Z,25.00
2018-04-23T14:27:48.433Z,25.00
2018-04-23T14:30:17.709Z,24.90
2018-04-23T14:32:45.588Z,24.70
2018-04-23T14:35:12.920Z,24.70
2018-04-23T14:37:40.749Z,24.70
2018-04-23T14:40:07.922Z,24.70
2018-04-23T14:42:34.820Z,24.60
2018-04-23T14:45:01.704Z,24.50
2018-04-23T14:47:28.620Z,24.50
2018-04-23T14:49:55.625Z,24.40
2018-04-23T14:52:23.306Z,24.40
2018-04-23T14:54:50.193Z,24.30
2018-04-23T14:57:17.080Z,24.20
2018-04-23T14:59:44.486Z,24.20
2018-04-23T15:02:11.372Z,24.10
2018-04-23T15:04:38.255Z,24.00
2018-04-23T15:07:05.571Z,24.00
2018-04-23T15:09:32.452Z,24.00
2018-04-23T15:11:59.376Z,24.00
2018-04-23T15:14:26.721Z,23.90
2018-04-23T15:16:53.601Z,23.90
2018-04-23T15:19:20.468Z,23.80
2018-04-23T15:21:47.412Z,23.80
2018-04-23T15:24:14.316Z,23.70
2018-04-23T15:26:41.841Z,23.60
2018-04-23T15:29:08.717Z,23.60
2018-04-23T15:31:35.633Z,23.50
2018-04-23T15:34:02.517Z,23.50
2018-04-23T15:36:30.648Z,23.40
2018-04-23T15:38:57.606Z,23.40
2018-04-23T15:41:24.520Z,23.30
2018-04-23T15:43:51.812Z,23.30
2018-04-23T15:46:19.445Z,23.20
2018-04-23T15:48:46.735Z,23.20
2018-04-23T15:51:14.382Z,23.10
2018-04-23T15:53:42.026Z,23.20
2018-04-23T15:56:08.932Z,23.10
2018-04-23T15:58:35.845Z,23.10
2018-04-23T16:01:03.980Z,23.00
2018-04-23T16:03:31.633Z,23.00
2018-04-23T16:05:58.532Z,22.80
2018-04-23T16:08:25.488Z,22.90
2018-04-23T16:10:52.371Z,22.90
2018-04-23T16:13:20.148Z,22.80
2018-04-23T16:15:50.354Z,22.80
2018-04-23T16:18:17.260Z,22.80
2018-04-23T16:20:44.168Z,22.80
2018-04-23T16:23:11.089Z,22.70
2018-04-23T16:25:39.125Z,22.70
2018-04-23T16:28:07.981Z,22.70
2018-04-23T16:30:35.364Z,22.70
2018-04-23T16:33:03.272Z,22.70
2018-04-23T16:35:30.172Z,22.60
2018-04-23T16:37:57.920Z,22.70
2018-04-23T16:40:27.908Z,22.60
2018-04-23T16:42:55.792Z,22.60
2018-04-23T16:45:23.412Z,22.40
2018-04-23T16:47:50.320Z,22.40
2018-04-23T16:50:18.172Z,22.40
2018-04-23T16:52:45.079Z,22.30
2018-04-23T16:55:12.051Z,22.30
2018-04-23T16:57:40.821Z,22.20
2018-04-23T17:00:07.720Z,22.20
2018-04-23T17:02:35.628Z,22.10
2018-04-23T17:05:03.618Z,22.10
2018-04-23T17:07:30.598Z,22.10
2018-04-23T17:09:57.501Z,22.10
2018-04-23T17:12:25.147Z,22.10
2018-04-23T17:14:52.052Z,22.00
2018-04-23T17:17:18.969Z,22.00
2018-04-23T17:19:45.960Z,21.90
2018-04-23T17:22:13.824Z,21.80
2018-04-23T17:24:40.697Z,21.80
2018-04-23T17:27:09.074Z,21.80
2018-04-23T17:29:36.069Z,21.80
2018-04-23T17:32:02.947Z,21.90
2018-04-23T17:34:30.354Z,21.80
2018-04-23T17:36:57.382Z,21.70
2018-04-23T17:39:24.424Z,21.80
2018-04-23T17:41:53.832Z,21.70
2018-04-23T17:44:21.468Z,21.70
2018-04-23T17:46:48.541Z,21.60
2018-04-23T17:49:16.166Z,21.50
2018-04-23T17:51:44.122Z,21.50
2018-04-23T17:54:11.010Z,21.50
2018-04-23T17:56:44.625Z,21.40
2018-04-23T17:59:12.233Z,21.30
2018-04-23T18:01:42.773Z,21.30
2018-04-23T18:04:12.614Z,21.30
2018-04-23T18:06:40.221Z,21.20
2018-04-23T18:09:09.117Z,21.20
2018-04-23T18:11:35.997Z,21.20
2018-04-23T18:14:02.889Z,21.20
2018-04-23T18:16:36.322Z,21.20
2018-04-23T18:19:03.189Z,21.10
2018-04-23T18:21:30.065Z,21.00
2018-04-23T18:23:59.624Z,21.00
2018-04-23T18:26:26.523Z,21.10
2018-04-23T18:28:53.936Z,21.00
2018-04-23T18:31:22.933Z,20.90
2018-04-23T18:33:49.808Z,20.90
2018-04-23T18:36:16.680Z,20.90
2018-04-23T18:38:44.401Z,20.90
2018-04-23T18:41:12.100Z,20.90
2018-04-23T18:43:38.981Z,20.90
2018-04-23T18:46:07.055Z,20.80
2018-04-23T18:48:33.924Z,20.80
2018-04-23T18:51:01.536Z,20.60
2018-04-23T18:53:31.532Z,20.70
2018-04-23T18:55:58.399Z,20.60
2018-04-23T18:58:25.256Z,20.60
2018-04-23T19:00:52.712Z,20.60
2018-04-23T19:03:19.576Z,20.50
2018-04-23T19:05:47.280Z,20.50
2018-04-23T19:08:14.195Z,20.40
2018-04-23T19:10:41.376Z,20.40
2018-04-23T19:13:08.255Z,20.30
2018-04-23T19:15:36.212Z,20.30
2018-04-23T19:18:03.419Z,20.30
2018-04-23T19:20:30.316Z,20.40
2018-04-23T19:22:57.202Z,20.40
2018-04-23T19:25:24.205Z,20.30
2018-04-23T19:27:51.094Z,20.30
2018-04-23T19:30:19.408Z,20.20
2018-04-23T19:32:46.271Z,20.10
2018-04-23T19:35:13.235Z,20.00
2018-04-23T19:37:43.324Z,19.90
2018-04-23T19:40:11.727Z,19.80
2018-04-23T19:42:39.212Z,19.70
2018-04-23T19:45:06.452Z,19.60
2018-04-23T19:47:34.084Z,19.50
2018-04-23T19:50:00.955Z,19.50
2018-04-23T19:52:27.904Z,19.50
2018-04-23T19:54:56.434Z,19.50
2018-04-23T19:57:23.387Z,19.60
2018-04-23T19:59:51.672Z,19.70
2018-04-23T20:02:18.576Z,19.80
2018-04-23T20:04:45.445Z,19.80
2018-04-23T20:07:15.956Z,19.80
2018-04-23T20:09:42.872Z,19.70
2018-04-23T20:12:09.775Z,19.70
2018-04-23T20:14:37.360Z,19.60
2018-04-23T20:17:04.288Z,19.60
2018-04-23T20:19:34.481Z,19.50
2018-04-23T20:22:01.539Z,19.40
2018-04-23T20:24:28.452Z,19.30
2018-04-23T20:26:55.407Z,19.30
2018-04-23T20:29:22.949Z,19.00
2018-04-23T20:31:50.724Z,18.90
2018-04-23T20:34:17.607Z,18.80
2018-04-23T20:36:44.545Z,18.70
2018-04-23T20:39:11.820Z,18.60
2018-04-23T20:41:38.868Z,18.60
2018-04-23T20:44:08.689Z,18.50
2018-04-23T20:46:35.709Z,18.50
2018-04-23T20:49:03.629Z,18.50
2018-04-23T20:51:32.884Z,18.60
2018-04-23T20:53:59.959Z,18.50
2018-04-23T20:56:27.587Z,18.50
2018-04-23T20:58:54.960Z,18.60
2018-04-23T21:01:21.939Z,18.70
2018-04-23T21:03:48.831Z,18.70
2018-04-23T21:06:16.369Z,18.80
2018-04-23T21:08:43.696Z,18.80
2018-04-23T21:11:10.598Z,18.70
2018-04-23T21:13:38.781Z,18.60
2018-04-23T21:16:06.412Z,18.60
2018-04-23T21:18:33.288Z,18.50
2018-04-23T21:21:03.032Z,18.60
2018-04-23T21:23:29.913Z,18.50
2018-04-23T21:25:56.796Z,18.60
2018-04-23T21:28:23.875Z,18.50
2018-04-23T21:30:50.748Z,18.50
2018-04-23T21:33:18.236Z,18.50
2018-04-23T21:35:46.623Z,18.50
2018-04-23T21:38:14.236Z,18.50
2018-04-23T21:40:41.121Z,18.50
2018-04-23T21:43:09.790Z,18.50
2018-04-23T21:45:38.756Z,18.50
2018-04-23T21:48:05.631Z,18.50
2018-04-23T21:50:33.069Z,18.50
2018-04-23T21:52:59.948Z,18.50
2018-04-23T21:55:26.820Z,18.50
2018-04-23T21:57:55.747Z,18.50
2018-04-23T22:00:22.667Z,18.40
2018-04-23T22:02:49.540Z,18.40
2018-04-23T22:05:18.777Z,18.50
2018-04-23T22:07:45.640Z,18.50
2018-04-23T22:10:13.880Z,18.50
2018-04-23T22:12:41.584Z,18.40
2018-04-23T22:15:08.509Z,18.40
2018-04-23T22:17:35.389Z,18.40
2018-04-23T22:20:02.265Z,18.30
2018-04-23T22:22:30.584Z,18.30
2018-04-23T22:24:57.471Z,18.30
2018-04-23T22:27:26.157Z,18.40
2018-04-23T22:29:53.040Z,18.30
2018-04-23T22:32:19.915Z,18.30
2018-04-23T22:34:47.311Z,18.30
2018-04-23T22:37:14.207Z,18.20
2018-04-23T22:39:41.096Z,18.10
2018-04-23T22:42:08.087Z,18.20
2018-04-23T22:44:34.967Z,18.10
2018-04-23T22:47:04.667Z,18.00
2018-04-23T22:49:32.001Z,18.00
2018-04-23T22:51:59.692Z,18.00
2018-04-23T22:54:26.564Z,17.90
2018-04-23T22:56:54.265Z,17.80
2018-04-23T22:59:23.176Z,17.80
2018-04-23T23:01:50.105Z,17.80
2018-04-23T23:04:16.998Z,17.80
2018-04-23T23:06:44.609Z,17.80
2018-04-23T23:09:11.480Z,17.80
2018-04-23T23:11:38.415Z,17.90
2018-04-23T23:14:05.308Z,17.90
2018-04-23T23:16:32.176Z,17.90
2018-04-23T23:18:59.128Z,17.80
2018-04-23T23:21:26.005Z,17.70
2018-04-23T23:23:53.653Z,17.60
2018-04-23T23:26:21.088Z,17.50
2018-04-23T23:28:47.962Z,17.40
2018-04-23T23:31:14.831Z,17.30
2018-04-23T23:33:42.532Z,17.20
2018-04-23T23:36:11.332Z,17.20
2018-04-23T23:38:38.196Z,17.30
2018-04-23T23:41:05.084Z,17.30
2018-04-23T23:43:31.960Z,17.30
2018-04-23T23:45:58.845Z,17.30
2018-04-23T23:48:27.416Z,17.30
2018-04-23T23:50:54.359Z,17.20
2018-04-23T23:53:23.044Z,17.20
2018-04-23T23:55:50.303Z,17.30
2018-04-23T23:58:17.184Z,17.00
